Time,TemperatureF,DewpointF,PressureIn,WindDirection,WindDirectionDegrees,WindSpeedMPH,WindSpeedGustMPH,Humidity,HourlyPrecipIn,Conditions,Clouds,dailyrainin,SoftwareType,DateUTC
2013-07-14 00:02:00,77.0,-99.9,29.95,ENE,63,8.0,9.0,-999,-99.99,,,-99.99,,2013-07-14 05:02:00,
2013-07-14 00:11:00,76.0,-99.9,29.95,NE,53,9.0,11.0,-999,-99.99,,,-99.99,,2013-07-14 05:11:00,
2013-07-14 00:32:00,75.0,-99.9,29.95,NE,55,9.0,11.0,-999,-99.99,,,-99.99,,2013-07-14 05:32:00,
2013-07-14 00:43:00,75.0,-99.9,29.94,ENE,57,6.0,9.0,-999,-99.99,,,-99.99,,2013-07-14 05:43:00,
2013-07-14 00:53:00,75.0,-99.9,29.94,ENE,59,8.0,11.0,-999,-99.99,,,-99.99,,2013-07-14 05:53:00,
2013-07-14 01:01:00,75.0,-99.9,29.94,NE,47,6.0,9.0,-999,-99.99,,,-99.99,,2013-07-14 06:01:00,
2013-07-14 01:12:00,76.0,-99.9,29.94,ENE,66,9.0,11.0,-999,-99.99,,,-99.99,,2013-07-14 06:12:00,
2013-07-14 01:32:00,74.0,-99.9,29.93,West,269,2.0,4.0,-999,-99.99,,,-99.99,,2013-07-14 06:32:00,
2013-07-14 01:42:00,75.0,-99.9,29.91,NNW,339,5.0,7.0,-999,-99.99,,,-99.99,,2013-07-14 06:42:00,
2013-07-14 01:53:00,75.0,-99.9,29.91,NNW,341,4.0,5.0,-999,-99.99,,,-99.99,,2013-07-14 06:53:00,
2013-07-14 02:02:00,75.0,-99.9,29.91,NW,315,4.0,6.0,-999,-99.99,,,-99.99,,2013-07-14 07:02:00,
2013-07-14 02:12:00,74.0,-99.9,29.91,West,259,3.0,3.0,-999,-99.99,,,-99.99,,2013-07-14 07:12:00,
2013-07-14 02:22:00,74.0,-99.9,29.90,NW,319,3.0,5.0,-999,-99.99,,,-99.99,,2013-07-14 07:22:00,
2013-07-14 02:33:00,75.0,-99.9,29.90,SSW,211,0.0,2.0,-999,-99.99,,,-99.99,,2013-07-14 07:33:00,
2013-07-14 02:43:00,76.0,-99.9,29.90,ESE,113,6.0,8.0,-999,-99.99,,,-99.99,,2013-07-14 07:43:00,
2013-07-14 02:53:00,76.0,-99.9,29.90,SE,138,4.0,8.0,-999,-99.99,,,-99.99,,2013-07-14 07:53:00,
2013-07-14 03:01:00,76.0,-99.9,29.90,SE,132,4.0,6.0,-999,-99.99,,,-99.99,,2013-07-14 08:01:00,
2013-07-14 03:11:00,76.0,-99.9,29.88,NE,43,4.0,6.0,-999,-99.99,,,-99.99,,2013-07-14 08:11:00,
2013-07-14 03:32:00,76.0,-99.9,29.89,SSE,150,2.0,3.0,-999,-99.99,,,-99.99,,2013-07-14 08:32:00,
2013-07-14 03:42:00,76.0,-99.9,29.89,SE,142,4.0,7.0,-999,-99.99,,,-99.99,,2013-07-14 08:42:00,
2013-07-14 03:53:00,76.0,-99.9,29.89,ESE,121,4.0,8.0,-999,-99.99,,,-99.99,,2013-07-14 08:53:00,
2013-07-14 04:01:00,76.0,-99.9,29.89,ESE,123,4.0,6.0,-999,-99.99,,,-99.99,,2013-07-14 09:01:00,
2013-07-14 04:11:00,76.0,-99.9,29.89,SE,128,4.0,5.0,-999,-99.99,,,-99.99,,2013-07-14 09:11:00,
2013-07-14 04:32:00,76.0,-99.9,29.89,SE,126,4.0,6.0,-999,-99.99,,,-99.99,,2013-07-14 09:32:00,
2013-07-14 04:42:00,76.0,-99.9,29.90,SE,134,2.0,4.0,-999,-99.99,,,-99.99,,2013-07-14 09:42:00,
2013-07-14 04:53:00,76.0,-99.9,29.90,SSW,212,1.0,2.0,-999,-99.99,,,-99.99,,2013-07-14 09:53:00,
2013-07-14 05:01:00,74.0,-99.9,29.91,NW,321,3.0,6.0,-999,-99.99,,,-99.99,,2013-07-14 10:01:00,
2013-07-14 05:12:00,73.0,-99.9,29.92,NNE,24,6.0,8.0,-999,-99.99,,,-99.99,,2013-07-14 10:12:00,
2013-07-14 05:22:00,73.0,-99.9,29.92,NE,49,12.0,16.0,-999,-99.99,,,-99.99,,2013-07-14 10:22:00,
2013-07-14 05:32:00,73.0,-99.9,29.93,NE,51,13.0,14.0,-999,-99.99,,,-99.99,,2013-07-14 10:32:00,
2013-07-14 05:42:00,73.0,-99.9,29.93,ENE,70,13.0,17.0,-999,-99.99,,,-99.99,,2013-07-14 10:42:00,
2013-07-14 05:53:00,73.0,-99.9,29.93,ENE,68,13.0,14.0,-999,-99.99,,,-99.99,,2013-07-14 10:53:00,
2013-07-14 06:02:00,73.0,-99.9,29.93,ENE,70,12.0,15.0,-999,-99.99,,,-99.99,,2013-07-14 11:02:00,
2013-07-14 06:11:00,73.0,-99.9,29.94,ENE,59,10.0,14.0,-999,-99.99,,,-99.99,,2013-07-14 11:11:00,
2013-07-14 06:32:00,73.0,-99.9,29.95,ENE,59,10.0,13.0,-999,-99.99,,,-99.99,,2013-07-14 11:32:00,
2013-07-14 06:43:00,72.0,-99.9,29.95,NE,46,10.0,12.0,-999,-99.99,,,-99.99,,2013-07-14 11:43:00,
2013-07-14 06:53:00,72.0,-99.9,29.95,NE,44,7.0,11.0,-999,-99.99,,,-99.99,,2013-07-14 11:53:00,
2013-07-14 07:02:00,72.0,-99.9,29.95,NNE,19,6.0,10.0,-999,-99.99,,,-99.99,,2013-07-14 12:02:00,
2013-07-14 07:12:00,72.0,-99.9,29.95,NNE,27,6.0,9.0,-999,-99.99,,,-99.99,,2013-07-14 12:12:00,
2013-07-14 07:33:00,72.0,-99.9,29.95,NNE,28,6.0,9.0,-999,-99.99,,,-99.99,,2013-07-14 12:33:00,
2013-07-14 07:43:00,73.0,-99.9,29.95,NE,45,9.0,10.0,-999,-99.99,,,-99.99,,2013-07-14 12:43:00,
2013-07-14 07:53:00,73.0,-99.9,29.96,NE,48,9.0,11.0,-999,-99.99,,,-99.99,,2013-07-14 12:53:00,
2013-07-14 08:01:00,73.0,-99.9,29.96,ENE,62,10.0,12.0,-999,-99.99,,,-99.99,,2013-07-14 13:01:00,
2013-07-14 08:11:00,73.0,-99.9,29.96,ENE,70,9.0,12.0,-999,-99.99,,,-99.99,,2013-07-14 13:11:00,
2013-07-14 08:32:00,73.0,-99.9,29.96,ENE,61,9.0,12.0,-999,-99.99,,,-99.99,,2013-07-14 13:32:00,
2013-07-14 08:43:00,74.0,-99.9,29.96,ENE,68,8.0,10.0,-999,-99.99,,,-99.99,,2013-07-14 13:43:00,
2013-07-14 08:53:00,74.0,-99.9,29.96,NE,53,6.0,9.0,-999,-99.99,,,-99.99,,2013-07-14 13:53:00,
2013-07-14 09:02:00,73.0,-99.9,29.96,NE,53,8.0,9.0,-999,-99.99,,,-99.99,,2013-07-14 14:02:00,
2013-07-14 09:11:00,75.0,-99.9,29.96,ENE,68,2.0,6.0,-999,-99.99,,,-99.99,,2013-07-14 14:11:00,
2013-07-14 09:23:00,75.0,-99.9,29.96,NE,39,3.0,5.0,-999,-99.99,,,-99.99,,2013-07-14 14:23:00,
2013-07-14 09:33:00,75.0,-99.9,29.96,ENE,57,4.0,5.0,-999,-99.99,,,-99.99,,2013-07-14 14:33:00,
2013-07-14 09:43:00,76.0,-99.9,29.96,NE,40,4.0,5.0,-999,-99.99,,,-99.99,,2013-07-14 14:43:00,
2013-07-14 09:53:00,76.0,-99.9,29.96,NNE,33,3.0,5.0,-999,-99.99,,,-99.99,,2013-07-14 14:53:00,
2013-07-14 10:01:00,77.0,-99.9,29.96,ENE,76,2.0,4.0,-999,-99.99,,,-99.99,,2013-07-14 15:01:00,
2013-07-14 10:12:00,78.0,-99.9,29.96,ENE,67,3.0,4.0,-999,-99.99,,,-99.99,,2013-07-14 15:12:00,
2013-07-14 10:32:00,78.0,-99.9,29.97,ENE,57,4.0,5.0,-999,-99.99,,,-99.99,,2013-07-14 15:32:00,
2013-07-14 10:42:00,78.0,-99.9,29.97,NE,48,4.0,6.0,-999,-99.99,,,-99.99,,2013-07-14 15:42:00,
2013-07-14 10:53:00,79.0,-99.9,29.98,NE,53,4.0,6.0,-999,-99.99,,,-99.99,,2013-07-14 15:53:00,
2013-07-14 11:01:00,80.0,-99.9,29.98,East,91,2.0,5.0,-999,-99.99,,,-99.99,,2013-07-14 16:01:00,
2013-07-14 11:11:00,79.0,-99.9,29.98,East,88,4.0,5.0,-999,-99.99,,,-99.99,,2013-07-14 16:11:00,
2013-07-14 11:32:00,80.0,-99.9,29.98,NE,35,2.0,4.0,-999,-99.99,,,-99.99,,2013-07-14 16:32:00,
2013-07-14 11:43:00,82.0,-99.9,29.98,WNW,303,-999.0,2.0,-999,-99.99,,,-99.99,,2013-07-14 16:43:00,
2013-07-14 11:54:00,82.0,-99.9,29.98,ESE,122,0.0,3.0,-999,-99.99,,,-99.99,,2013-07-14 16:54:00,
2013-07-14 12:03:00,81.0,-99.9,29.98,SE,128,2.0,4.0,-999,-99.99,,,-99.99,,2013-07-14 17:03:00,
2013-07-14 12:12:00,81.0,-99.9,29.98,ESE,107,4.0,6.0,-999,-99.99,,,-99.99,,2013-07-14 17:12:00,
2013-07-14 12:23:00,81.0,-99.9,29.98,East,101,6.0,9.0,-999,-99.99,,,-99.99,,2013-07-14 17:23:00,
2013-07-14 12:32:00,81.0,-99.9,29.98,ESE,109,6.0,8.0,-999,-99.99,,,-99.99,,2013-07-14 17:32:00,
2013-07-14 12:43:00,81.0,-99.9,29.98,ESE,121,7.0,10.0,-999,-99.99,,,-99.99,,2013-07-14 17:43:00,
2013-07-14 12:53:00,82.0,-99.9,29.98,SE,136,6.0,9.0,-999,-99.99,,,-99.99,,2013-07-14 17:53:00,
2013-07-14 13:01:00,83.0,-99.9,29.98,ESE,111,3.0,6.0,-999,-99.99,,,-99.99,,2013-07-14 18:01:00,
2013-07-14 13:11:00,83.0,-99.9,29.98,East,89,5.0,9.0,-999,-99.99,,,-99.99,,2013-07-14 18:11:00,
2013-07-14 13:22:00,83.0,-99.9,29.98,NE,48,7.0,10.0,-999,-99.99,,,-99.99,,2013-07-14 18:22:00,
2013-07-14 13:32:00,84.0,-99.9,29.98,ENE,67,6.0,8.0,-999,-99.99,,,-99.99,,2013-07-14 18:32:00,
2013-07-14 13:42:00,84.0,-99.9,29.97,East,92,2.0,9.0,-999,-99.99,,,-99.99,,2013-07-14 18:42:00,
2013-07-14 13:52:00,84.0,-99.9,29.96,NE,56,9.0,11.0,-999,-99.99,,,-99.99,,2013-07-14 18:52:00,
2013-07-14 14:02:00,85.0,-99.9,29.96,NNE,25,7.0,12.0,-999,-99.99,,,-99.99,,2013-07-14 19:02:00,
2013-07-14 14:12:00,85.0,-99.9,29.96,NNE,32,6.0,8.0,-999,-99.99,,,-99.99,,2013-07-14 19:12:00,
2013-07-14 14:32:00,85.0,-99.9,29.96,NNE,14,6.0,11.0,-999,-99.99,,,-99.99,,2013-07-14 19:32:00,
2013-07-14 14:43:00,85.0,-99.9,29.95,ENE,72,6.0,12.0,-999,-99.99,,,-99.99,,2013-07-14 19:43:00,
2013-07-14 14:53:00,86.0,-99.9,29.95,ENE,78,6.0,10.0,-999,-99.99,,,-99.99,,2013-07-14 19:53:00,
2013-07-14 15:02:00,85.0,-99.9,29.95,ESE,104,8.0,9.0,-999,-99.99,,,-99.99,,2013-07-14 20:02:00,
2013-07-14 15:11:00,85.0,-99.9,29.94,East,99,10.0,15.0,-999,-99.99,,,-99.99,,2013-07-14 20:11:00,
2013-07-14 15:32:00,86.0,-99.9,29.94,SE,141,6.0,8.0,-999,-99.99,,,-99.99,,2013-07-14 20:32:00,
2013-07-14 15:43:00,86.0,-99.9,29.94,SE,137,7.0,10.0,-999,-99.99,,,-99.99,,2013-07-14 20:43:00,
2013-07-14 15:53:00,86.0,-99.9,29.94,SSE,148,5.0,8.0,-999,-99.99,,,-99.99,,2013-07-14 20:53:00,
2013-07-14 16:02:00,86.0,-99.9,29.93,SE,139,5.0,8.0,-999,-99.99,,,-99.99,,2013-07-14 21:02:00,
2013-07-14 16:11:00,86.0,-99.9,29.93,SE,131,6.0,8.0,-999,-99.99,,,-99.99,,2013-07-14 21:11:00,
2013-07-14 16:22:00,86.0,-99.9,29.93,ESE,118,7.0,9.0,-999,-99.99,,,-99.99,,2013-07-14 21:22:00,
2013-07-14 16:32:00,86.0,-99.9,29.93,ESE,113,7.0,9.0,-999,-99.99,,,-99.99,,2013-07-14 21:32:00,
2013-07-14 16:43:00,87.0,-99.9,29.93,ESE,113,6.0,8.0,-999,-99.99,,,-99.99,,2013-07-14 21:43:00,
2013-07-14 16:53:00,87.0,-99.9,29.93,ESE,116,7.0,8.0,-999,-99.99,,,-99.99,,2013-07-14 21:53:00,
2013-07-14 17:02:00,87.0,-99.9,29.93,ESE,114,5.0,7.0,-999,-99.99,,,-99.99,,2013-07-14 22:02:00,
2013-07-14 17:11:00,87.0,-99.9,29.92,ESE,123,6.0,8.0,-999,-99.99,,,-99.99,,2013-07-14 22:11:00,
2013-07-14 17:32:00,83.0,-99.9,29.93,East,97,18.0,20.0,-999,-99.99,,,-99.99,,2013-07-14 22:32:00,
2013-07-14 17:42:00,82.0,-99.9,29.93,ESE,111,19.0,21.0,-999,-99.99,,,-99.99,,2013-07-14 22:42:00,
2013-07-14 17:53:00,81.0,-99.9,29.93,ESE,115,18.0,20.0,-999,-99.99,,,-99.99,,2013-07-14 22:53:00,
2013-07-14 18:02:00,82.0,-99.9,29.93,ESE,117,13.0,18.0,-999,-99.99,,,-99.99,,2013-07-14 23:02:00,
2013-07-14 18:11:00,82.0,-99.9,29.94,ESE,116,13.0,17.0,-999,-99.99,,,-99.99,,2013-07-14 23:11:00,
2013-07-14 18:32:00,82.0,-99.9,29.95,ESE,111,12.0,13.0,-999,-99.99,,,-99.99,,2013-07-14 23:32:00,
2013-07-14 18:42:00,81.0,-99.9,29.95,SE,124,9.0,13.0,-999,-99.99,,,-99.99,,2013-07-14 23:42:00,
2013-07-14 18:53:00,81.0,-99.9,29.95,SE,136,7.0,9.0,-999,-99.99,,,-99.99,,2013-07-14 23:53:00,
2013-07-14 19:02:00,81.0,-99.9,29.95,SE,131,6.0,8.0,-999,-99.99,,,-99.99,,2013-07-15 00:02:00,
2013-07-14 19:11:00,82.0,-99.9,29.95,SE,139,5.0,9.0,-999,-99.99,,,-99.99,,2013-07-15 00:11:00,
2013-07-14 19:32:00,82.0,-99.9,29.96,SSE,152,4.0,7.0,-999,-99.99,,,-99.99,,2013-07-15 00:32:00,
2013-07-14 19:43:00,82.0,-99.9,29.96,SSW,205,3.0,6.0,-999,-99.99,,,-99.99,,2013-07-15 00:43:00,
2013-07-14 19:53:00,82.0,-99.9,29.96,SW,230,2.0,4.0,-999,-99.99,,,-99.99,,2013-07-15 00:53:00,
2013-07-14 20:02:00,82.0,-99.9,29.96,SSW,192,2.0,4.0,-999,-99.99,,,-99.99,,2013-07-15 01:02:00,
2013-07-14 20:12:00,81.0,-99.9,29.96,SSW,194,4.0,6.0,-999,-99.99,,,-99.99,,2013-07-15 01:12:00,
2013-07-14 20:22:00,82.0,-99.9,29.97,SSW,208,2.0,5.0,-999,-99.99,,,-99.99,,2013-07-15 01:22:00,
2013-07-14 20:32:00,82.0,-99.9,29.97,SSW,192,4.0,6.0,-999,-99.99,,,-99.99,,2013-07-15 01:32:00,
2013-07-14 20:43:00,81.0,-99.9,29.97,WSW,244,3.0,4.0,-999,-99.99,,,-99.99,,2013-07-15 01:43:00,
2013-07-14 20:53:00,81.0,-99.9,29.97,WSW,252,3.0,4.0,-999,-99.99,,,-99.99,,2013-07-15 01:53:00,
2013-07-14 21:02:00,81.0,-99.9,29.97,SW,227,3.0,4.0,-999,-99.99,,,-99.99,,2013-07-15 02:02:00,
2013-07-14 21:11:00,81.0,-99.9,29.98,SW,235,3.0,3.0,-999,-99.99,,,-99.99,,2013-07-15 02:11:00,
2013-07-14 21:32:00,81.0,-99.9,29.98,SSW,207,2.0,4.0,-999,-99.99,,,-99.99,,2013-07-15 02:32:00,
2013-07-14 21:42:00,81.0,-99.9,29.98,SSW,208,2.0,3.0,-999,-99.99,,,-99.99,,2013-07-15 02:42:00,
2013-07-14 21:53:00,81.0,-99.9,29.99,SSW,212,2.0,2.0,-999,-99.99,,,-99.99,,2013-07-15 02:53:00,
2013-07-14 22:02:00,81.0,-99.9,29.99,SW,225,2.0,3.0,-999,-99.99,,,-99.99,,2013-07-15 03:02:00,
2013-07-14 22:11:00,81.0,-99.9,29.99,WSW,258,0.0,2.0,-999,-99.99,,,-99.99,,2013-07-15 03:11:00,
2013-07-14 22:32:00,81.0,-99.9,29.99,NNW,346,2.0,4.0,-999,-99.99,,,-99.99,,2013-07-15 03:32:00,
2013-07-14 22:43:00,81.0,-99.9,29.99,NW,307,1.0,2.0,-999,-99.99,,,-99.99,,2013-07-15 03:43:00,
2013-07-14 22:53:00,82.0,-99.9,29.99,NNW,328,-999.0,2.0,-999,-99.99,,,-99.99,,2013-07-15 03:53:00,
2013-07-14 23:01:00,82.0,-99.9,30.00,NNE,21,2.0,5.0,-999,-99.99,,,-99.99,,2013-07-15 04:01:00,
2013-07-14 23:11:00,81.0,-99.9,30.00,WSW,250,3.0,5.0,-999,-99.99,,,-99.99,,2013-07-15 04:11:00,
2013-07-14 23:33:00,81.0,-99.9,30.00,NW,307,3.0,5.0,-999,-99.99,,,-99.99,,2013-07-15 04:33:00,
2013-07-14 23:42:00,81.0,-99.9,30.00,SW,232,2.0,3.0,-999,-99.99,,,-99.99,,2013-07-15 04:42:00,
2013-07-14 23:54:00,80.0,-99.9,30.00,West,278,4.0,5.0,-999,-99.99,,,-99.99,,2013-07-15 04:54:00,